createdAt,value
2019-05-06T00:00:59.304Z,0.00
2019-05-06T00:01:55.890Z,0.00
2019-05-06T00:02:55.880Z,0.00
2019-05-06T00:03:55.851Z,0.00
2019-05-06T00:04:55.861Z,0.00
2019-05-06T00:05:55.829Z,0.00
2019-05-06T00:06:55.818Z,0.00
2019-05-06T00:07:55.823Z,0.00
2019-05-06T00:08:55.798Z,0.00
2019-05-06T00:09:55.791Z,0.00
2019-05-06T00:10:55.780Z,0.00
2019-05-06T00:11:55.763Z,0.00
2019-05-06T00:12:55.759Z,0.00
2019-05-06T00:13:55.755Z,0.00
2019-05-06T00:14:55.774Z,0.00
2019-05-06T00:15:55.735Z,0.00
2019-05-06T00:16:58.493Z,0.00
2019-05-06T00:17:55.713Z,0.00
2019-05-06T00:18:55.712Z,0.00
2019-05-06T00:19:57.057Z,0.00
2019-05-06T00:20:57.589Z,0.00
2019-05-06T00:21:55.657Z,0.00
2019-05-06T00:22:55.653Z,0.00
2019-05-06T00:23:55.638Z,0.00
2019-05-06T00:24:55.660Z,0.00
2019-05-06T00:25:55.636Z,0.00
2019-05-06T00:26:57.603Z,0.00
2019-05-06T00:27:55.625Z,0.00
2019-05-06T00:28:55.580Z,0.00
2019-05-06T00:29:55.570Z,0.00
2019-05-06T00:31:08.592Z,0.00
2019-05-06T00:31:56.568Z,0.00
2019-05-06T00:32:55.543Z,0.00
2019-05-06T00:33:55.535Z,0.00
2019-05-06T00:34:55.513Z,0.00
2019-05-06T00:35:55.503Z,0.00
2019-05-06T00:36:55.539Z,0.00
2019-05-06T00:37:55.482Z,0.00
2019-05-06T00:38:55.472Z,0.00
2019-05-06T00:39:55.466Z,0.00
2019-05-06T00:40:55.465Z,0.00
2019-05-06T00:41:55.463Z,0.00
2019-05-06T00:42:55.460Z,0.00
2019-05-06T00:43:55.423Z,0.00
2019-05-06T00:44:55.410Z,0.00
2019-05-06T00:45:55.394Z,0.00
2019-05-06T00:46:55.388Z,0.00
2019-05-06T00:47:55.383Z,0.00
2019-05-06T00:48:55.376Z,0.00
2019-05-06T00:49:55.357Z,0.00
2019-05-06T00:50:55.343Z,0.00
2019-05-06T00:51:55.341Z,0.00
2019-05-06T00:52:55.326Z,0.00
2019-05-06T00:53:55.307Z,0.00
2019-05-06T00:54:55.295Z,0.00
2019-05-06T00:55:55.286Z,0.00
2019-05-06T00:56:55.279Z,0.00
2019-05-06T00:57:55.295Z,0.00
2019-05-06T00:58:55.257Z,0.00
2019-05-06T00:59:55.252Z,0.00
2019-05-06T01:00:55.236Z,0.00
2019-05-06T01:01:55.228Z,0.00
2019-05-06T01:02:55.216Z,0.00
2019-05-06T01:03:55.221Z,0.00
2019-05-06T01:04:55.209Z,0.00
2019-05-06T01:05:55.194Z,0.00
2019-05-06T01:06:55.167Z,0.00
2019-05-06T01:07:55.171Z,0.00
2019-05-06T01:08:55.152Z,0.00
2019-05-06T01:09:55.153Z,0.00
2019-05-06T01:10:55.128Z,0.00
2019-05-06T01:11:55.112Z,0.00
2019-05-06T01:12:55.108Z,0.00
2019-05-06T01:13:55.091Z,0.00
2019-05-06T01:14:55.095Z,0.00
2019-05-06T01:15:55.070Z,0.00
2019-05-06T01:16:55.061Z,0.00
2019-05-06T01:17:55.049Z,0.00
2019-05-06T01:18:55.040Z,0.00
2019-05-06T01:19:55.101Z,0.00
2019-05-06T01:20:55.036Z,0.00
2019-05-06T01:21:55.009Z,0.00
2019-05-06T01:22:55.001Z,0.00
2019-05-06T01:23:54.986Z,0.00
2019-05-06T01:24:55.823Z,0.00
2019-05-06T01:25:54.976Z,0.00
2019-05-06T01:26:54.956Z,0.00
2019-05-06T01:27:54.943Z,0.00
2019-05-06T01:28:54.930Z,0.00
2019-05-06T01:29:55.021Z,0.00
2019-05-06T01:30:54.924Z,0.00
2019-05-06T01:31:54.896Z,0.00
2019-05-06T01:32:54.904Z,0.00
2019-05-06T01:33:54.873Z,0.00
2019-05-06T01:34:54.863Z,0.00
2019-05-06T01:35:54.861Z,0.00
2019-05-06T01:36:54.846Z,0.00
2019-05-06T01:37:54.834Z,0.00
2019-05-06T01:38:54.819Z,0.00
2019-05-06T01:39:54.824Z,0.00
2019-05-06T01:40:54.825Z,0.00
2019-05-06T01:41:54.792Z,0.00
2019-05-06T01:42:54.781Z,0.00
2019-05-06T01:43:54.771Z,0.00
2019-05-06T01:44:54.756Z,0.00
2019-05-06T01:45:54.747Z,0.00
2019-05-06T01:46:54.748Z,0.00
2019-05-06T01:47:54.727Z,0.00
2019-05-06T01:48:54.718Z,0.00
2019-05-06T01:49:54.706Z,0.00
2019-05-06T01:50:54.695Z,0.00
2019-05-06T01:51:54.876Z,0.00
2019-05-06T01:52:54.667Z,0.00
2019-05-06T01:53:54.710Z,0.00
2019-05-06T01:54:54.652Z,0.00
2019-05-06T01:55:54.670Z,0.00
2019-05-06T01:56:54.632Z,0.00
2019-05-06T01:57:54.712Z,0.00
2019-05-06T01:58:54.641Z,0.00
2019-05-06T01:59:54.591Z,0.00
2019-05-06T02:00:54.581Z,0.00
2019-05-06T02:02:00.600Z,0.00
2019-05-06T02:02:55.557Z,0.00
2019-05-06T02:03:54.555Z,0.00
2019-05-06T02:04:54.549Z,0.00
2019-05-06T02:05:54.527Z,0.00
2019-05-06T02:06:54.816Z,0.00
2019-05-06T02:07:55.099Z,0.00
2019-05-06T02:08:54.504Z,0.00
2019-05-06T02:09:54.500Z,0.00
2019-05-06T02:10:54.704Z,0.00
2019-05-06T02:11:54.471Z,0.00
2019-05-06T02:12:54.490Z,0.00
2019-05-06T02:13:54.438Z,0.00
2019-05-06T02:14:54.472Z,0.00
2019-05-06T02:15:54.822Z,0.00
2019-05-06T02:16:54.785Z,0.00
2019-05-06T02:17:55.126Z,0.00
2019-05-06T02:18:54.405Z,0.00
2019-05-06T02:19:54.772Z,0.00
2019-05-06T02:20:54.370Z,0.00
2019-05-06T02:21:54.435Z,0.00
2019-05-06T02:22:54.343Z,0.00
2019-05-06T02:23:54.335Z,0.00
2019-05-06T02:24:54.321Z,0.00
2019-05-06T02:25:54.342Z,0.00
2019-05-06T02:26:54.454Z,0.00
2019-05-06T02:27:54.311Z,0.00
2019-05-06T02:28:54.597Z,0.00
2019-05-06T02:29:54.424Z,0.00
2019-05-06T02:30:54.943Z,0.00
2019-05-06T02:32:00.778Z,0.00
2019-05-06T02:32:55.864Z,0.00
2019-05-06T02:33:55.852Z,0.00
2019-05-06T02:34:54.806Z,0.00
2019-05-06T02:35:55.024Z,0.00
2019-05-06T02:36:55.136Z,0.00
2019-05-06T02:37:55.106Z,0.00
2019-05-06T02:38:55.619Z,0.00
2019-05-06T02:39:54.188Z,0.00
2019-05-06T02:40:54.148Z,0.00
2019-05-06T02:41:54.826Z,0.00
2019-05-06T02:42:55.076Z,0.00
2019-05-06T02:43:54.442Z,0.00
2019-05-06T02:44:54.518Z,0.00
2019-05-06T02:45:54.133Z,0.00
2019-05-06T02:46:54.084Z,0.00
2019-05-06T02:47:54.073Z,0.00
2019-05-06T02:48:54.479Z,0.00
2019-05-06T02:49:54.048Z,0.00
2019-05-06T02:50:54.062Z,0.00
2019-05-06T02:51:54.036Z,0.00
2019-05-06T02:52:54.036Z,0.00
2019-05-06T02:53:54.183Z,0.00
2019-05-06T02:54:54.015Z,0.00
2019-05-06T02:55:53.991Z,0.00
2019-05-06T02:56:53.976Z,0.00
2019-05-06T02:57:54.034Z,0.00
2019-05-06T02:58:53.991Z,0.00
2019-05-06T02:59:55.370Z,0.00
2019-05-06T03:00:54.168Z,0.00
2019-05-06T03:01:54.190Z,0.00
2019-05-06T03:02:54.394Z,0.00
2019-05-06T03:03:53.899Z,0.00
2019-05-06T03:04:53.887Z,0.00
2019-05-06T03:05:53.882Z,0.00
2019-05-06T03:06:53.869Z,0.00
2019-05-06T03:07:56.933Z,0.00
2019-05-06T03:08:54.464Z,0.00
2019-05-06T03:09:53.876Z,0.00
2019-05-06T03:10:53.914Z,0.00
2019-05-06T03:11:54.225Z,0.00
2019-05-06T03:12:54.080Z,0.00
2019-05-06T03:13:54.059Z,0.00
2019-05-06T03:14:53.795Z,0.00
2019-05-06T03:15:54.441Z,0.00
2019-05-06T03:16:54.271Z,0.00
2019-05-06T03:17:55.333Z,5.62
2019-05-06T03:18:53.743Z,5.62
2019-05-06T03:19:53.737Z,5.62
2019-05-06T03:20:53.733Z,5.62
2019-05-06T03:21:54.698Z,5.62
2019-05-06T03:22:54.506Z,5.62
2019-05-06T03:23:54.402Z,5.62
2019-05-06T03:24:54.589Z,5.62
2019-05-06T03:25:53.675Z,11.25
2019-05-06T03:26:56.994Z,11.25
2019-05-06T03:27:53.640Z,11.25
2019-05-06T03:28:53.798Z,11.25
2019-05-06T03:29:53.902Z,11.25
2019-05-06T03:30:56.524Z,11.25
2019-05-06T03:31:56.294Z,16.88
2019-05-06T03:33:28.216Z,16.88
2019-05-06T03:34:16.490Z,16.88
2019-05-06T03:35:15.730Z,16.88
2019-05-06T03:36:06.334Z,22.50
2019-05-06T03:36:56.571Z,22.50
2019-05-06T03:37:53.595Z,22.50
2019-05-06T03:38:53.927Z,22.50
2019-05-06T03:39:53.514Z,28.12
2019-05-06T03:40:53.949Z,28.12
2019-05-06T03:41:53.881Z,28.12
2019-05-06T03:42:54.066Z,28.12
2019-05-06T03:43:54.374Z,33.75
2019-05-06T03:44:53.654Z,33.75
2019-05-06T03:45:53.777Z,33.75
2019-05-06T03:46:54.174Z,33.75
2019-05-06T03:47:54.356Z,39.38
2019-05-06T03:48:53.411Z,39.38
2019-05-06T03:49:54.555Z,39.38
2019-05-06T03:50:55.965Z,45.00
2019-05-06T03:51:56.235Z,45.00
2019-05-06T03:52:56.342Z,45.00
2019-05-06T03:53:54.010Z,50.62
2019-05-06T03:54:53.898Z,50.62
2019-05-06T03:55:53.857Z,50.62
2019-05-06T03:56:53.812Z,56.25
2019-05-06T03:57:53.943Z,56.25
2019-05-06T03:58:53.880Z,61.88
2019-05-06T03:59:53.324Z,61.88
2019-05-06T04:00:53.288Z,61.88
2019-05-06T04:01:53.524Z,67.50
2019-05-06T04:02:53.711Z,67.50
2019-05-06T04:03:56.986Z,67.50
2019-05-06T04:04:56.385Z,73.12
2019-05-06T04:05:55.987Z,73.12
2019-05-06T04:06:53.946Z,73.12
2019-05-06T04:07:53.292Z,78.75
2019-05-06T04:08:53.220Z,78.75
2019-05-06T04:09:53.897Z,78.75
2019-05-06T04:10:53.724Z,78.75
2019-05-06T04:11:54.152Z,84.38
2019-05-06T04:12:53.943Z,84.38
2019-05-06T04:13:53.516Z,84.38
2019-05-06T04:14:54.011Z,90.00
2019-05-06T04:15:53.964Z,90.00
2019-05-06T04:16:53.409Z,90.00
2019-05-06T04:17:54.087Z,95.62
2019-05-06T04:18:54.089Z,95.62
2019-05-06T04:19:53.623Z,95.62
2019-05-06T04:20:53.368Z,95.62
2019-05-06T04:21:53.462Z,101.25
2019-05-06T04:22:53.352Z,101.25
2019-05-06T04:23:53.646Z,101.25
2019-05-06T04:24:53.972Z,106.88
2019-05-06T04:25:53.017Z,106.88
2019-05-06T04:26:53.479Z,106.88
2019-05-06T04:27:53.694Z,106.88
2019-05-06T04:28:53.521Z,112.50
2019-05-06T04:29:54.403Z,112.50
2019-05-06T04:30:54.795Z,112.50
2019-05-06T04:31:54.096Z,118.12
2019-05-06T04:32:53.366Z,118.12
2019-05-06T04:34:08.827Z,118.12
2019-05-06T04:34:53.912Z,118.12
2019-05-06T04:35:54.062Z,123.75
2019-05-06T04:36:53.490Z,123.75
2019-05-06T04:37:53.858Z,123.75
2019-05-06T04:38:53.931Z,123.75
2019-05-06T04:39:53.501Z,129.38
2019-05-06T04:40:53.877Z,129.38
2019-05-06T04:41:53.920Z,129.38
2019-05-06T04:42:52.974Z,135.00
2019-05-06T04:43:53.441Z,135.00
2019-05-06T04:44:53.270Z,135.00
2019-05-06T04:45:54.076Z,135.00
2019-05-06T04:46:54.395Z,140.62
2019-05-06T04:47:53.833Z,140.62
2019-05-06T04:48:53.858Z,140.62
2019-05-06T04:49:53.382Z,140.62
2019-05-06T04:50:53.571Z,146.25
2019-05-06T04:51:54.059Z,146.25
2019-05-06T04:52:53.605Z,146.25
2019-05-06T04:53:53.708Z,146.25
2019-05-06T04:54:53.395Z,146.25
2019-05-06T04:55:53.930Z,151.88
2019-05-06T04:56:53.599Z,151.88
2019-05-06T04:57:53.587Z,151.88
2019-05-06T04:58:53.787Z,151.88
2019-05-06T04:59:54.182Z,157.50
2019-05-06T05:00:53.269Z,157.50
2019-05-06T05:01:53.467Z,157.50
2019-05-06T05:02:55.027Z,157.50
2019-05-06T05:03:53.817Z,157.50
2019-05-06T05:04:53.008Z,157.50
2019-05-06T05:05:53.172Z,163.12
2019-05-06T05:06:52.565Z,163.12
2019-05-06T05:07:53.099Z,163.12
2019-05-06T05:08:53.198Z,163.12
2019-05-06T05:09:53.490Z,163.12
2019-05-06T05:10:53.094Z,168.75
2019-05-06T05:11:53.236Z,168.75
2019-05-06T05:12:52.823Z,168.75
2019-05-06T05:13:53.142Z,168.75
2019-05-06T05:14:52.481Z,174.38
2019-05-06T05:15:52.554Z,174.38
2019-05-06T05:16:52.885Z,174.38
2019-05-06T05:17:52.652Z,174.38
2019-05-06T05:18:53.073Z,174.38
2019-05-06T05:19:52.421Z,174.38
2019-05-06T05:20:52.924Z,180.00
2019-05-06T05:21:52.433Z,180.00
2019-05-06T05:22:52.864Z,180.00
2019-05-06T05:23:52.425Z,180.00
2019-05-06T05:24:52.369Z,180.00
2019-05-06T05:25:52.354Z,185.62
2019-05-06T05:26:52.352Z,185.62
2019-05-06T05:27:52.819Z,185.62
2019-05-06T05:28:53.251Z,185.62
2019-05-06T05:29:52.398Z,185.62
2019-05-06T05:30:52.320Z,185.62
2019-05-06T05:31:53.009Z,191.25
2019-05-06T05:32:52.305Z,185.62
2019-05-06T05:33:52.680Z,185.62
2019-05-06T05:34:52.405Z,185.62
2019-05-06T05:35:52.678Z,191.25
2019-05-06T05:36:52.239Z,191.25
2019-05-06T05:37:52.925Z,191.25
2019-05-06T05:38:52.383Z,191.25
2019-05-06T05:39:52.216Z,196.88
2019-05-06T05:40:52.500Z,196.88
2019-05-06T05:41:52.218Z,196.88
2019-05-06T05:42:52.281Z,196.88
2019-05-06T05:43:52.659Z,202.50
2019-05-06T05:44:52.738Z,202.50
2019-05-06T05:45:52.428Z,202.50
2019-05-06T05:46:52.526Z,202.50
2019-05-06T05:47:52.311Z,202.50
2019-05-06T05:48:52.152Z,208.12
2019-05-06T05:49:52.852Z,208.12
2019-05-06T05:50:52.608Z,208.12
2019-05-06T05:51:52.133Z,208.12
2019-05-06T05:52:52.166Z,208.12
2019-05-06T05:53:52.458Z,213.75
2019-05-06T05:54:55.401Z,213.75
2019-05-06T05:55:52.720Z,213.75
2019-05-06T05:56:52.938Z,219.38
2019-05-06T05:57:52.008Z,219.38
2019-05-06T05:58:53.483Z,219.38
2019-05-06T05:59:52.815Z,219.38
2019-05-06T06:00:52.128Z,225.00
2019-05-06T06:01:53.001Z,225.00
2019-05-06T06:02:52.998Z,225.00
2019-05-06T06:03:52.768Z,225.00
2019-05-06T06:04:57.079Z,230.62
2019-05-06T06:05:52.966Z,230.62
2019-05-06T06:06:52.111Z,230.62
2019-05-06T06:07:52.997Z,230.62
2019-05-06T06:08:52.445Z,230.62
2019-05-06T06:09:52.452Z,236.25
2019-05-06T06:10:52.467Z,236.25
2019-05-06T06:11:53.251Z,236.25
2019-05-06T06:12:52.797Z,236.25
2019-05-06T06:13:52.314Z,236.25
2019-05-06T06:14:55.236Z,241.88
2019-05-06T06:15:52.187Z,241.88
2019-05-06T06:16:52.711Z,241.88
2019-05-06T06:17:52.068Z,241.88
2019-05-06T06:18:52.474Z,241.88
2019-05-06T06:19:53.384Z,241.88
2019-05-06T06:20:52.808Z,247.50
2019-05-06T06:21:52.377Z,247.50
2019-05-06T06:22:52.290Z,247.50
2019-05-06T06:23:52.891Z,247.50
2019-05-06T06:24:52.588Z,247.50
2019-05-06T06:25:52.892Z,253.12
2019-05-06T06:26:52.159Z,253.12
2019-05-06T06:27:52.234Z,253.12
2019-05-06T06:28:52.267Z,253.12
2019-05-06T06:29:52.719Z,258.75
2019-05-06T06:30:52.084Z,253.12
2019-05-06T06:31:52.392Z,258.75
2019-05-06T06:32:52.813Z,258.75
2019-05-06T06:33:52.976Z,258.75
2019-05-06T06:34:53.384Z,258.75
2019-05-06T06:35:52.599Z,258.75
2019-05-06T06:36:52.617Z,264.38
2019-05-06T06:37:52.362Z,264.38
2019-05-06T06:38:52.737Z,258.75
2019-05-06T06:39:52.673Z,264.38
2019-05-06T06:40:55.480Z,264.38
2019-05-06T06:41:51.986Z,270.00
2019-05-06T06:42:52.443Z,264.38
2019-05-06T06:43:52.474Z,264.38
2019-05-06T06:44:52.085Z,270.00
2019-05-06T06:45:53.118Z,270.00
2019-05-06T06:46:52.434Z,270.00
2019-05-06T06:47:51.900Z,275.62
2019-05-06T06:48:52.712Z,275.62
2019-05-06T06:49:53.492Z,275.62
2019-05-06T06:50:52.271Z,281.25
2019-05-06T06:51:53.216Z,286.88
2019-05-06T06:52:52.552Z,298.12
2019-05-06T06:53:52.961Z,320.62
2019-05-06T06:54:52.665Z,315.00
2019-05-06T06:55:52.286Z,303.75
2019-05-06T06:57:03.229Z,309.38
2019-05-06T06:57:52.346Z,331.88
2019-05-06T06:58:52.492Z,365.62
2019-05-06T06:59:52.399Z,427.50
2019-05-06T07:00:53.303Z,478.12
2019-05-06T07:01:52.960Z,466.88
2019-05-06T07:02:52.489Z,444.38
2019-05-06T07:03:52.799Z,461.25
2019-05-06T07:04:52.571Z,506.25
2019-05-06T07:05:52.763Z,545.62
2019-05-06T07:06:53.124Z,455.62
2019-05-06T07:07:53.104Z,399.38
2019-05-06T07:08:51.769Z,371.25
2019-05-06T07:09:52.606Z,461.25
2019-05-06T07:10:52.527Z,478.12
2019-05-06T07:11:52.594Z,506.25
2019-05-06T07:12:53.191Z,517.50
2019-05-06T07:13:52.925Z,523.12
2019-05-06T07:14:52.331Z,472.50
2019-05-06T07:15:51.996Z,534.38
2019-05-06T07:16:53.196Z,630.00
2019-05-06T07:17:52.475Z,691.88
2019-05-06T07:18:52.631Z,697.50
2019-05-06T07:19:52.748Z,613.12
2019-05-06T07:20:52.553Z,489.38
2019-05-06T07:21:52.263Z,511.88
2019-05-06T07:22:52.954Z,466.88
2019-05-06T07:23:52.999Z,466.88
2019-05-06T07:24:52.729Z,562.50
2019-05-06T07:25:53.529Z,646.88
2019-05-06T07:26:52.460Z,562.50
2019-05-06T07:27:52.962Z,517.50
2019-05-06T07:28:52.639Z,455.62
2019-05-06T07:29:52.221Z,416.25
2019-05-06T07:30:52.230Z,433.12
2019-05-06T07:31:53.256Z,495.00
2019-05-06T07:32:52.784Z,573.75
2019-05-06T07:33:52.228Z,646.88
2019-05-06T07:34:52.995Z,753.75
2019-05-06T07:35:52.943Z,765.00
2019-05-06T07:36:52.447Z,646.88
2019-05-06T07:37:52.918Z,658.12
2019-05-06T07:38:52.716Z,714.38
2019-05-06T07:39:52.890Z,765.00
2019-05-06T07:40:52.897Z,720.00
2019-05-06T07:41:53.282Z,534.38
2019-05-06T07:42:52.654Z,444.38
2019-05-06T07:43:52.555Z,427.50
2019-05-06T07:44:52.933Z,455.62
2019-05-06T07:45:53.088Z,523.12
2019-05-06T07:46:52.484Z,528.75
2019-05-06T07:47:53.003Z,528.75
2019-05-06T07:48:51.894Z,416.25
2019-05-06T07:49:53.024Z,388.12
2019-05-06T07:50:52.029Z,371.25
2019-05-06T07:51:52.887Z,393.75
2019-05-06T07:52:52.764Z,427.50
2019-05-06T07:53:52.428Z,444.38
2019-05-06T07:54:53.163Z,523.12
2019-05-06T07:55:52.496Z,450.00
2019-05-06T07:56:52.705Z,461.25
2019-05-06T07:57:52.525Z,489.38
2019-05-06T07:58:52.892Z,540.00
2019-05-06T07:59:52.498Z,556.88
2019-05-06T08:00:52.470Z,540.00
2019-05-06T08:01:50.642Z,585.00
2019-05-06T08:02:52.398Z,596.25
2019-05-06T08:03:53.114Z,635.62
2019-05-06T08:04:52.968Z,579.38
2019-05-06T08:05:57.884Z,607.50
2019-05-06T08:06:52.326Z,523.12
2019-05-06T08:07:50.595Z,607.50
2019-05-06T08:08:53.739Z,742.50
2019-05-06T08:09:52.789Z,748.12
2019-05-06T08:10:52.602Z,855.00
2019-05-06T08:11:50.532Z,883.12
2019-05-06T08:12:52.533Z,810.00
2019-05-06T08:13:52.623Z,736.88
2019-05-06T08:14:52.372Z,607.50
2019-05-06T08:15:52.698Z,776.25
2019-05-06T08:16:50.467Z,928.12
2019-05-06T08:17:52.442Z,1046.25
2019-05-06T08:18:52.388Z,1771.88
2019-05-06T08:19:52.731Z,720.00
2019-05-06T08:20:51.957Z,731.25
2019-05-06T08:21:52.123Z,753.75
2019-05-06T08:22:52.588Z,646.88
2019-05-06T08:23:52.304Z,2812.50
2019-05-06T08:24:50.386Z,3206.25
2019-05-06T08:25:52.679Z,3650.62
2019-05-06T08:26:52.162Z,3931.88
2019-05-06T08:27:50.366Z,1822.50
2019-05-06T08:28:52.393Z,1057.50
2019-05-06T08:29:52.485Z,3808.12
2019-05-06T08:30:50.315Z,3605.62
2019-05-06T08:31:52.300Z,1428.75
2019-05-06T08:32:50.312Z,596.25
2019-05-06T08:33:52.387Z,585.00
2019-05-06T08:34:52.274Z,601.88
2019-05-06T08:35:50.270Z,585.00
2019-05-06T08:36:50.254Z,579.38
2019-05-06T08:37:50.242Z,579.38
2019-05-06T08:38:50.232Z,579.38
2019-05-06T08:39:52.534Z,601.88
2019-05-06T08:40:52.412Z,961.88
2019-05-06T08:41:50.199Z,1608.75
2019-05-06T08:42:50.189Z,4179.38
2019-05-06T08:43:50.173Z,4156.88
2019-05-06T08:44:50.170Z,4308.75
2019-05-06T08:45:52.633Z,4224.38
2019-05-06T08:46:50.142Z,4201.88
2019-05-06T08:47:52.246Z,4511.25
2019-05-06T08:48:52.357Z,1113.75
2019-05-06T08:49:50.118Z,826.88
2019-05-06T08:50:50.107Z,714.38
2019-05-06T08:51:50.084Z,624.38
2019-05-06T08:52:52.129Z,579.38
2019-05-06T08:53:50.061Z,568.12
2019-05-06T08:54:50.055Z,585.00
2019-05-06T08:55:50.048Z,590.62
2019-05-06T08:56:52.150Z,618.75
2019-05-06T08:57:50.016Z,630.00
2019-05-06T08:58:52.582Z,691.88
2019-05-06T08:59:50.002Z,3999.38
2019-05-06T09:00:50.002Z,4449.38
2019-05-06T09:01:49.972Z,1715.62
2019-05-06T09:02:49.963Z,4168.12
2019-05-06T09:04:05.036Z,4314.38
2019-05-06T09:04:51.800Z,4376.25
2019-05-06T09:05:49.938Z,4567.50
2019-05-06T09:06:49.924Z,4753.12
2019-05-06T09:07:49.911Z,4966.88
2019-05-06T09:08:52.052Z,4590.00
2019-05-06T09:09:49.903Z,4876.88
2019-05-06T09:10:51.978Z,1254.38
2019-05-06T09:11:49.886Z,1541.25
2019-05-06T09:12:49.853Z,1203.75
2019-05-06T09:13:51.979Z,1299.38
2019-05-06T09:14:49.841Z,1501.88
2019-05-06T09:15:49.825Z,1096.88
2019-05-06T09:16:51.334Z,950.62
2019-05-06T09:17:49.813Z,860.62
2019-05-06T09:18:49.788Z,815.62
2019-05-06T09:19:49.785Z,838.12
2019-05-06T09:20:49.770Z,911.25
2019-05-06T09:21:49.768Z,1051.88
2019-05-06T09:22:52.080Z,4837.50
2019-05-06T09:23:49.735Z,1226.25
2019-05-06T09:24:49.740Z,4556.25
2019-05-06T09:25:49.715Z,4792.50
2019-05-06T09:26:52.022Z,4978.12
2019-05-06T09:27:49.701Z,3279.38
2019-05-06T09:28:49.677Z,1687.50
2019-05-06T09:29:51.960Z,2728.12
2019-05-06T09:30:49.654Z,720.00
2019-05-06T09:31:52.050Z,618.75
2019-05-06T09:32:49.643Z,568.12
2019-05-06T09:33:49.628Z,579.38
2019-05-06T09:34:49.623Z,596.25
2019-05-06T09:35:49.602Z,697.50
2019-05-06T09:36:52.653Z,725.62
2019-05-06T09:37:53.267Z,753.75
2019-05-06T09:38:49.610Z,1125.00
2019-05-06T09:39:49.556Z,5011.88
2019-05-06T09:40:49.546Z,4843.12
2019-05-06T09:41:49.769Z,4590.00
2019-05-06T09:42:51.932Z,1215.00
2019-05-06T09:43:49.517Z,815.62
2019-05-06T09:44:50.663Z,618.75
2019-05-06T09:45:49.514Z,517.50
2019-05-06T09:46:49.479Z,416.25
2019-05-06T09:47:49.478Z,354.38
2019-05-06T09:48:49.460Z,343.12
2019-05-06T09:49:49.487Z,376.88
2019-05-06T09:50:49.445Z,438.75
2019-05-06T09:51:49.427Z,517.50
2019-05-06T09:52:49.429Z,601.88
2019-05-06T09:53:49.411Z,697.50
2019-05-06T09:54:49.394Z,770.62
2019-05-06T09:55:49.408Z,804.38
2019-05-06T09:56:49.374Z,838.12
2019-05-06T09:57:49.378Z,894.38
2019-05-06T09:58:49.353Z,1226.25
2019-05-06T09:59:49.348Z,894.38
2019-05-06T10:00:49.330Z,843.75
2019-05-06T10:01:49.321Z,781.88
2019-05-06T10:02:49.665Z,765.00
2019-05-06T10:03:49.294Z,821.25
2019-05-06T10:04:49.292Z,984.38
2019-05-06T10:05:49.282Z,1096.88
2019-05-06T10:06:57.320Z,1141.88
2019-05-06T10:07:52.278Z,1164.38
2019-05-06T10:08:49.266Z,1192.50
2019-05-06T10:09:49.251Z,1203.75
2019-05-06T10:10:56.883Z,1350.00
2019-05-06T10:11:52.414Z,1136.25
2019-05-06T10:12:49.201Z,1029.38
2019-05-06T10:13:49.185Z,956.25
2019-05-06T10:14:49.190Z,900.00
2019-05-06T10:15:49.168Z,866.25
2019-05-06T10:16:49.169Z,821.25
2019-05-06T10:17:49.142Z,838.12
2019-05-06T10:18:49.131Z,871.88
2019-05-06T10:19:49.147Z,916.88
2019-05-06T10:20:49.109Z,995.62
2019-05-06T10:21:49.104Z,1063.12
2019-05-06T10:22:57.185Z,1136.25
2019-05-06T10:23:49.086Z,1220.62
2019-05-06T10:24:49.068Z,1293.75
2019-05-06T10:25:49.092Z,1271.25
2019-05-06T10:26:49.045Z,1243.12
2019-05-06T10:27:49.033Z,1220.62
2019-05-06T10:28:49.031Z,1186.88
2019-05-06T10:29:49.018Z,1215.00
2019-05-06T10:30:49.002Z,1299.38
2019-05-06T10:31:48.998Z,1181.25
2019-05-06T10:32:48.982Z,1378.12
2019-05-06T10:33:48.990Z,1631.25
2019-05-06T10:34:48.966Z,1850.62
2019-05-06T10:35:48.951Z,4207.50
2019-05-06T10:36:48.962Z,5816.25
2019-05-06T10:37:48.926Z,5945.62
2019-05-06T10:38:48.922Z,5928.75
2019-05-06T10:39:48.903Z,2002.50
2019-05-06T10:41:01.033Z,1833.75
2019-05-06T10:41:49.899Z,3093.75
2019-05-06T10:42:48.883Z,2160.00
2019-05-06T10:43:48.866Z,1350.00
2019-05-06T10:44:48.885Z,1119.38
2019-05-06T10:45:48.837Z,877.50
2019-05-06T10:46:48.831Z,759.38
2019-05-06T10:47:48.814Z,663.75
2019-05-06T10:48:48.809Z,590.62
2019-05-06T10:49:48.793Z,562.50
2019-05-06T10:50:48.798Z,562.50
2019-05-06T10:51:48.776Z,556.88
2019-05-06T10:52:48.760Z,562.50
2019-05-06T10:53:48.767Z,579.38
2019-05-06T10:54:48.747Z,590.62
2019-05-06T10:55:48.732Z,613.12
2019-05-06T10:56:52.693Z,635.62
2019-05-06T10:57:49.707Z,652.50
2019-05-06T10:58:48.698Z,686.25
2019-05-06T10:59:48.702Z,736.88
2019-05-06T11:00:48.679Z,798.75
2019-05-06T11:01:48.670Z,877.50
2019-05-06T11:02:48.653Z,967.50
2019-05-06T11:03:48.650Z,1080.00
2019-05-06T11:04:48.652Z,1192.50
2019-05-06T11:05:48.624Z,1276.88
2019-05-06T11:06:48.615Z,1344.38
2019-05-06T11:07:48.595Z,1400.62
2019-05-06T11:08:48.591Z,1445.62
2019-05-06T11:09:48.581Z,1468.12
2019-05-06T11:10:48.581Z,1473.75
2019-05-06T11:11:48.554Z,1451.25
2019-05-06T11:12:48.544Z,1541.25
2019-05-06T11:13:48.530Z,1411.88
2019-05-06T11:14:48.530Z,1535.62
2019-05-06T11:15:48.528Z,3729.38
2019-05-06T11:16:48.501Z,5911.88
2019-05-06T11:17:48.488Z,1445.62
2019-05-06T11:18:48.479Z,1215.00
2019-05-06T11:19:48.469Z,1029.38
2019-05-06T11:20:48.453Z,877.50
2019-05-06T11:21:48.457Z,753.75
2019-05-06T11:22:48.435Z,680.62
2019-05-06T11:23:48.422Z,630.00
2019-05-06T11:24:48.414Z,596.25
2019-05-06T11:25:48.403Z,596.25
2019-05-06T11:26:48.401Z,624.38
2019-05-06T11:27:48.382Z,680.62
2019-05-06T11:28:48.365Z,759.38
2019-05-06T11:29:48.365Z,843.75
2019-05-06T11:30:48.343Z,939.38
2019-05-06T11:31:48.356Z,1029.38
2019-05-06T11:32:48.321Z,1125.00
2019-05-06T11:33:48.310Z,1237.50
2019-05-06T11:34:48.301Z,1350.00
2019-05-06T11:35:48.291Z,1479.38
2019-05-06T11:36:48.277Z,1693.12
2019-05-06T11:37:50.876Z,1760.62
2019-05-06T11:38:49.251Z,1963.12
2019-05-06T11:39:48.242Z,2430.00
2019-05-06T11:40:48.231Z,5236.88
2019-05-06T11:42:01.371Z,1614.38
2019-05-06T11:42:49.240Z,1513.12
2019-05-06T11:43:48.205Z,1580.62
2019-05-06T11:44:48.208Z,1513.12
2019-05-06T11:45:48.185Z,5585.62
2019-05-06T11:46:48.211Z,5343.75
2019-05-06T11:47:48.152Z,1333.12
2019-05-06T11:48:48.167Z,4758.75
2019-05-06T11:49:48.131Z,3965.62
2019-05-06T11:50:48.128Z,1170.00
2019-05-06T11:51:48.124Z,1074.38
2019-05-06T11:52:48.099Z,1046.25
2019-05-06T11:53:48.091Z,1057.50
2019-05-06T11:54:48.097Z,1153.12
2019-05-06T11:55:48.089Z,1265.62
2019-05-06T11:56:51.741Z,1400.62
2019-05-06T11:57:49.048Z,1451.25
2019-05-06T11:58:48.033Z,1530.00
2019-05-06T11:59:48.040Z,1513.12
2019-05-06T12:00:48.018Z,1535.62
2019-05-06T12:01:48.035Z,1597.50
2019-05-06T12:02:48.901Z,1473.75
2019-05-06T12:03:47.976Z,1440.00
2019-05-06T12:04:47.969Z,3526.88
2019-05-06T12:05:47.959Z,4713.75
2019-05-06T12:06:47.947Z,1434.38
2019-05-06T12:08:00.903Z,4516.88
2019-05-06T12:08:48.932Z,4668.75
2019-05-06T12:09:47.914Z,4646.25
2019-05-06T12:10:47.907Z,4545.00
2019-05-06T12:11:47.892Z,4466.25
2019-05-06T12:12:47.880Z,4449.38
2019-05-06T12:13:47.879Z,4235.62
2019-05-06T12:14:47.866Z,4145.62
2019-05-06T12:15:47.853Z,4522.50
2019-05-06T12:16:47.874Z,4145.62
2019-05-06T12:17:47.837Z,2047.50
2019-05-06T12:18:47.825Z,2182.50
2019-05-06T12:19:47.830Z,2115.00
2019-05-06T12:20:47.792Z,2019.38
2019-05-06T12:21:47.780Z,1867.50
2019-05-06T12:22:47.775Z,1771.88
2019-05-06T12:23:47.760Z,1867.50
2019-05-06T12:24:47.751Z,1884.38
2019-05-06T12:25:47.778Z,1603.12
2019-05-06T12:26:47.729Z,1423.12
2019-05-06T12:27:47.720Z,1282.50
2019-05-06T12:28:47.705Z,1198.12
2019-05-06T12:29:47.702Z,1158.75
2019-05-06T12:30:47.701Z,1158.75
2019-05-06T12:31:47.676Z,1141.88
2019-05-06T12:32:47.668Z,1153.12
2019-05-06T12:33:47.663Z,1153.12
2019-05-06T12:34:47.647Z,1108.12
2019-05-06T12:35:47.641Z,1018.12
2019-05-06T12:36:47.620Z,922.50
2019-05-06T12:37:47.608Z,855.00